sensor_id;sensor_type;location;lat;lon;timestamp;pressure;altitude;pressure_sealevel;temperature;humidity
59337;BME280;45115;52.002;4.686;2023-01-16T00:01:02;99583.53;;;2.68;100.00
59337;BME280;45115;52.002;4.686;2023-01-16T00:03:28;99591.97;;;2.70;100.00
59337;BME280;45115;52.002;4.686;2023-01-16T00:05:56;99585.38;;;2.68;100.00
59337;BME280;45115;52.002;4.686;2023-01-16T00:08:23;99548.97;;;2.44;100.00
59337;BME280;45115;52.002;4.686;2023-01-16T00:10:50;99559.41;;;2.38;100.00
59337;BME280;45115;52.002;4.686;2023-01-16T00:13:16;99569.63;;;2.40;100.00
59337;BME280;45115;52.002;4.686;2023-01-16T00:15:47;99540.19;;;2.28;100.00
59337;BME280;45115;52.002;4.686;2023-01-16T00:18:15;99553.38;;;2.38;100.00
59337;BME280;45115;52.002;4.686;2023-01-16T00:20:42;99554.22;;;2.44;100.00
59337;BME280;45115;52.002;4.686;2023-01-16T00:23:11;99552.53;;;2.32;100.00
59337;BME280;45115;52.002;4.686;2023-01-16T00:25:38;99547.75;;;2.29;100.00
59337;BME280;45115;52.002;4.686;2023-01-16T00:28:05;99539.88;;;2.24;100.00
59337;BME280;45115;52.002;4.686;2023-01-16T00:30:32;99552.47;;;2.27;100.00
59337;BME280;45115;52.002;4.686;2023-01-16T00:32:58;99539.63;;;2.25;100.00
59337;BME280;45115;52.002;4.686;2023-01-16T00:35:25;99534.09;;;2.22;100.00
59337;BME280;45115;52.002;4.686;2023-01-16T00:37:52;99531.81;;;2.31;100.00
59337;BME280;45115;52.002;4.686;2023-01-16T00:40:20;99522.56;;;2.23;100.00
59337;BME280;45115;52.002;4.686;2023-01-16T00:42:47;99520.81;;;2.29;100.00
59337;BME280;45115;52.002;4.686;2023-01-16T00:45:14;99504.59;;;2.27;100.00
59337;BME280;45115;52.002;4.686;2023-01-16T00:47:41;99505.47;;;2.37;100.00
59337;BME280;45115;52.002;4.686;2023-01-16T00:50:08;99504.66;;;2.37;100.00
59337;BME280;45115;52.002;4.686;2023-01-16T00:52:35;99506.47;;;2.31;100.00
59337;BME280;45115;52.002;4.686;2023-01-16T00:55:03;99489.13;;;2.25;100.00
59337;BME280;45115;52.002;4.686;2023-01-16T00:57:31;99488.56;;;2.23;100.00
59337;BME280;45115;52.002;4.686;2023-01-16T00:59:58;99472.50;;;2.14;100.00
59337;BME280;45115;52.002;4.686;2023-01-16T01:02:26;99468.78;;;2.10;100.00
59337;BME280;45115;52.002;4.686;2023-01-16T01:04:53;99465.94;;;2.11;100.00
59337;BME280;45115;52.002;4.686;2023-01-16T01:07:20;99459.06;;;2.05;100.00
59337;BME280;45115;52.002;4.686;2023-01-16T01:09:46;99458.09;;;2.11;100.00
59337;BME280;45115;52.002;4.686;2023-01-16T01:12:13;99445.25;;;2.10;100.00
59337;BME280;45115;52.002;4.686;2023-01-16T01:14:41;99444.03;;;2.18;100.00
59337;BME280;45115;52.002;4.686;2023-01-16T01:17:08;99444.34;;;2.21;100.00
59337;BME280;45115;52.002;4.686;2023-01-16T01:19:35;99442.75;;;2.20;100.00
59337;BME280;45115;52.002;4.686;2023-01-16T01:22:01;99431.50;;;2.20;100.00
59337;BME280;45115;52.002;4.686;2023-01-16T01:24:28;99415.56;;;2.21;100.00
59337;BME280;45115;52.002;4.686;2023-01-16T01:26:55;99419.56;;;2.34;100.00
59337;BME280;45115;52.002;4.686;2023-01-16T01:29:22;99411.03;;;2.17;100.00
59337;BME280;45115;52.002;4.686;2023-01-16T01:31:50;99402.97;;;2.18;100.00
59337;BME280;45115;52.002;4.686;2023-01-16T01:34:16;99409.44;;;2.10;100.00
59337;BME280;45115;52.002;4.686;2023-01-16T01:36:43;99404.94;;;2.06;100.00
59337;BME280;45115;52.002;4.686;2023-01-16T01:39:09;99378.47;;;2.02;100.00
59337;BME280;45115;52.002;4.686;2023-01-16T01:41:36;99387.16;;;2.08;100.00
59337;BME280;45115;52.002;4.686;2023-01-16T01:47:04;99377.50;;;2.08;100.00
59337;BME280;45115;52.002;4.686;2023-01-16T01:49:31;99365.19;;;2.09;100.00
59337;BME280;45115;52.002;4.686;2023-01-16T01:52:00;99365.13;;;2.04;100.00
59337;BME280;45115;52.002;4.686;2023-01-16T01:54:30;99358.47;;;2.18;100.00
59337;BME280;45115;52.002;4.686;2023-01-16T01:57:03;99354.81;;;2.19;100.00
59337;BME280;45115;52.002;4.686;2023-01-16T01:59:34;99360.00;;;2.14;100.00
59337;BME280;45115;52.002;4.686;2023-01-16T02:02:04;99346.38;;;2.12;100.00
59337;BME280;45115;52.002;4.686;2023-01-16T02:04:34;99341.31;;;2.00;100.00
59337;BME280;45115;52.002;4.686;2023-01-16T02:07:05;99334.84;;;2.08;100.00
59337;BME280;45115;52.002;4.686;2023-01-16T02:09:33;99320.19;;;2.07;100.00
59337;BME280;45115;52.002;4.686;2023-01-16T02:12:02;99329.13;;;2.11;100.00
59337;BME280;45115;52.002;4.686;2023-01-16T02:14:33;99319.00;;;2.20;100.00
59337;BME280;45115;52.002;4.686;2023-01-16T02:17:05;99320.00;;;2.14;100.00
59337;BME280;45115;52.002;4.686;2023-01-16T02:19:54;99319.19;;;2.13;100.00
59337;BME280;45115;52.002;4.686;2023-01-16T02:22:45;99314.25;;;2.17;100.00
59337;BME280;45115;52.002;4.686;2023-01-16T02:25:49;99314.84;;;2.24;100.00
59337;BME280;45115;52.002;4.686;2023-01-16T02:28:52;99309.09;;;2.27;100.00
59337;BME280;45115;52.002;4.686;2023-01-16T02:31:32;99293.91;;;2.24;100.00
59337;BME280;45115;52.002;4.686;2023-01-16T02:34:12;99305.72;;;2.32;100.00
59337;BME280;45115;52.002;4.686;2023-01-16T02:36:50;99307.19;;;2.55;100.00
59337;BME280;45115;52.002;4.686;2023-01-16T02:39:30;99289.97;;;2.64;100.00
59337;BME280;45115;52.002;4.686;2023-01-16T02:42:05;99279.78;;;2.68;100.00
59337;BME280;45115;52.002;4.686;2023-01-16T02:44:40;99269.28;;;2.68;100.00
59337;BME280;45115;52.002;4.686;2023-01-16T02:47:15;99241.47;;;2.51;100.00
59337;BME280;45115;52.002;4.686;2023-01-16T02:49:48;99252.97;;;2.50;100.00
59337;BME280;45115;52.002;4.686;2023-01-16T02:52:22;99239.38;;;2.48;100.00
59337;BME280;45115;52.002;4.686;2023-01-16T02:54:56;99231.69;;;2.36;100.00
59337;BME280;45115;52.002;4.686;2023-01-16T02:57:29;99218.00;;;2.19;100.00
59337;BME280;45115;52.002;4.686;2023-01-16T02:59:59;99212.53;;;2.31;100.00
59337;BME280;45115;52.002;4.686;2023-01-16T03:02:27;99207.56;;;2.29;100.00
59337;BME280;45115;52.002;4.686;2023-01-16T03:04:54;99201.00;;;2.21;100.00
59337;BME280;45115;52.002;4.686;2023-01-16T03:10:25;99192.56;;;2.14;100.00
59337;BME280;45115;52.002;4.686;2023-01-16T03:13:03;99185.50;;;2.15;100.00
59337;BME280;45115;52.002;4.686;2023-01-16T03:15:43;99184.69;;;2.09;100.00
59337;BME280;45115;52.002;4.686;2023-01-16T03:18:18;99168.16;;;1.98;100.00
59337;BME280;45115;52.002;4.686;2023-01-16T03:20:52;99170.00;;;2.03;100.00
59337;BME280;45115;52.002;4.686;2023-01-16T03:23:26;99167.13;;;2.04;100.00
59337;BME280;45115;52.002;4.686;2023-01-16T03:26:00;99156.16;;;2.07;100.00
59337;BME280;45115;52.002;4.686;2023-01-16T03:28:35;99156.41;;;2.06;100.00
59337;BME280;45115;52.002;4.686;2023-01-16T03:31:10;99149.09;;;2.08;100.00
59337;BME280;45115;52.002;4.686;2023-01-16T03:33:46;99153.84;;;2.11;100.00
59337;BME280;45115;52.002;4.686;2023-01-16T03:36:23;99137.06;;;2.07;100.00
59337;BME280;45115;52.002;4.686;2023-01-16T03:38:51;99139.47;;;2.14;100.00
59337;BME280;45115;52.002;4.686;2023-01-16T03:41:21;99119.84;;;2.16;100.00
59337;BME280;45115;52.002;4.686;2023-01-16T03:43:54;99109.91;;;2.18;100.00
59337;BME280;45115;52.002;4.686;2023-01-16T03:46:26;99112.56;;;2.23;100.00
59337;BME280;45115;52.002;4.686;2023-01-16T03:48:57;99098.94;;;2.21;100.00
59337;BME280;45115;52.002;4.686;2023-01-16T03:51:27;99078.03;;;2.21;100.00
59337;BME280;45115;52.002;4.686;2023-01-16T03:54:00;99079.34;;;2.29;100.00
59337;BME280;45115;52.002;4.686;2023-01-16T03:56:32;99072.56;;;2.33;100.00
59337;BME280;45115;52.002;4.686;2023-01-16T03:59:00;99060.28;;;2.39;100.00
59337;BME280;45115;52.002;4.686;2023-01-16T04:01:34;99047.72;;;2.46;100.00
59337;BME280;45115;52.002;4.686;2023-01-16T04:04:08;99045.34;;;2.45;100.00
59337;BME280;45115;52.002;4.686;2023-01-16T04:06:41;99034.63;;;2.41;100.00
59337;BME280;45115;52.002;4.686;2023-01-16T04:09:13;99025.72;;;2.42;100.00
59337;BME280;45115;52.002;4.686;2023-01-16T04:11:45;99009.75;;;2.38;100.00
59337;BME280;45115;52.002;4.686;2023-01-16T04:14:13;99003.22;;;2.36;100.00
59337;BME280;45115;52.002;4.686;2023-01-16T04:16:42;98997.22;;;2.41;100.00
59337;BME280;45115;52.002;4.686;2023-01-16T04:19:12;98984.13;;;2.41;100.00
59337;BME280;45115;52.002;4.686;2023-01-16T04:21:43;98978.91;;;2.41;100.00
59337;BME280;45115;52.002;4.686;2023-01-16T04:24:10;98970.50;;;2.33;100.00
59337;BME280;45115;52.002;4.686;2023-01-16T04:26:37;98966.06;;;2.34;100.00
59337;BME280;45115;52.002;4.686;2023-01-16T04:29:04;98960.81;;;2.39;100.00
59337;BME280;45115;52.002;4.686;2023-01-16T04:31:30;98951.41;;;2.38;100.00
59337;BME280;45115;52.002;4.686;2023-01-16T04:33:57;98933.84;;;2.28;100.00
59337;BME280;45115;52.002;4.686;2023-01-16T04:36:25;98934.41;;;2.35;100.00
59337;BME280;45115;52.002;4.686;2023-01-16T04:38:52;98928.88;;;2.37;100.00
59337;BME280;45115;52.002;4.686;2023-01-16T04:41:18;98920.50;;;2.35;100.00
59337;BME280;45115;52.002;4.686;2023-01-16T04:43:59;98916.84;;;2.36;100.00
59337;BME280;45115;52.002;4.686;2023-01-16T04:46:26;98897.22;;;2.33;100.00
59337;BME280;45115;52.002;4.686;2023-01-16T04:48:52;98895.13;;;2.35;100.00
59337;BME280;45115;52.002;4.686;2023-01-16T04:51:19;98888.84;;;2.36;100.00
59337;BME280;45115;52.002;4.686;2023-01-16T04:53:47;98869.75;;;2.36;100.00
59337;BME280;45115;52.002;4.686;2023-01-16T04:56:14;98862.94;;;2.40;100.00
59337;BME280;45115;52.002;4.686;2023-01-16T04:58:40;98851.97;;;2.38;100.00
59337;BME280;45115;52.002;4.686;2023-01-16T05:01:07;98852.47;;;2.45;100.00
59337;BME280;45115;52.002;4.686;2023-01-16T05:03:34;98832.34;;;2.41;100.00
59337;BME280;45115;52.002;4.686;2023-01-16T05:06:00;98828.91;;;2.50;100.00
59337;BME280;45115;52.002;4.686;2023-01-16T05:08:27;98811.66;;;2.49;100.00
59337;BME280;45115;52.002;4.686;2023-01-16T05:10:55;98814.75;;;2.57;100.00
59337;BME280;45115;52.002;4.686;2023-01-16T05:13:24;98805.88;;;2.52;100.00
59337;BME280;45115;52.002;4.686;2023-01-16T05:15:51;98797.25;;;2.52;100.00
59337;BME280;45115;52.002;4.686;2023-01-16T05:18:18;98775.53;;;2.41;100.00
59337;BME280;45115;52.002;4.686;2023-01-16T05:20:44;98770.28;;;2.46;100.00
59337;BME280;45115;52.002;4.686;2023-01-16T05:23:11;98750.66;;;2.44;100.00
59337;BME280;45115;52.002;4.686;2023-01-16T05:25:38;98744.34;;;2.50;100.00
59337;BME280;45115;52.002;4.686;2023-01-16T05:28:06;98737.81;;;2.52;100.00
59337;BME280;45115;52.002;4.686;2023-01-16T05:30:33;98727.63;;;2.51;100.00
59337;BME280;45115;52.002;4.686;2023-01-16T05:33:00;98727.59;;;2.61;100.00
59337;BME280;45115;52.002;4.686;2023-01-16T05:35:27;98713.22;;;2.59;100.00
59337;BME280;45115;52.002;4.686;2023-01-16T05:37:54;98700.09;;;2.64;100.00
59337;BME280;45115;52.002;4.686;2023-01-16T05:40:20;98703.97;;;2.82;100.00
59337;BME280;45115;52.002;4.686;2023-01-16T05:42:47;98707.06;;;2.89;100.00
59337;BME280;45115;52.002;4.686;2023-01-16T05:45:15;98697.63;;;2.88;100.00
59337;BME280;45115;52.002;4.686;2023-01-16T05:47:43;98686.31;;;2.98;100.00
59337;BME280;45115;52.002;4.686;2023-01-16T05:50:10;98678.69;;;3.02;100.00
59337;BME280;45115;52.002;4.686;2023-01-16T05:52:37;98674.50;;;3.06;100.00
59337;BME280;45115;52.002;4.686;2023-01-16T05:55:04;98657.47;;;3.03;100.00
59337;BME280;45115;52.002;4.686;2023-01-16T05:57:31;98660.06;;;3.09;100.00
59337;BME280;45115;52.002;4.686;2023-01-16T05:59:58;98659.56;;;3.07;100.00
59337;BME280;45115;52.002;4.686;2023-01-16T06:02:26;98652.22;;;3.09;100.00
59337;BME280;45115;52.002;4.686;2023-01-16T06:04:53;98648.25;;;3.11;100.00
59337;BME280;45115;52.002;4.686;2023-01-16T06:07:21;98646.66;;;3.15;100.00
59337;BME280;45115;52.002;4.686;2023-01-16T06:09:47;98636.94;;;3.16;100.00
59337;BME280;45115;52.002;4.686;2023-01-16T06:12:15;98625.16;;;3.18;100.00
59337;BME280;45115;52.002;4.686;2023-01-16T06:14:43;98622.28;;;3.15;100.00
59337;BME280;45115;52.002;4.686;2023-01-16T06:17:10;98622.00;;;3.22;100.00
59337;BME280;45115;52.002;4.686;2023-01-16T06:19:41;98609.69;;;3.22;100.00
59337;BME280;45115;52.002;4.686;2023-01-16T06:22:07;98615.66;;;3.28;100.00
59337;BME280;45115;52.002;4.686;2023-01-16T06:24:34;98602.06;;;3.26;100.00
59337;BME280;45115;52.002;4.686;2023-01-16T06:27:01;98589.44;;;3.28;100.00
59337;BME280;45115;52.002;4.686;2023-01-16T06:29:27;98583.94;;;3.29;100.00
59337;BME280;45115;52.002;4.686;2023-01-16T06:31:54;98582.34;;;3.34;100.00
59337;BME280;45115;52.002;4.686;2023-01-16T06:34:21;98579.19;;;3.31;100.00
59337;BME280;45115;52.002;4.686;2023-01-16T06:36:49;98562.44;;;3.32;100.00
59337;BME280;45115;52.002;4.686;2023-01-16T06:39:15;98554.56;;;3.32;100.00
59337;BME280;45115;52.002;4.686;2023-01-16T06:41:42;98554.28;;;3.34;100.00
59337;BME280;45115;52.002;4.686;2023-01-16T06:44:09;98551.09;;;3.37;100.00
59337;BME280;45115;52.002;4.686;2023-01-16T06:46:36;98534.88;;;3.35;100.00
59337;BME280;45115;52.002;4.686;2023-01-16T06:49:03;98527.03;;;3.35;100.00
59337;BME280;45115;52.002;4.686;2023-01-16T06:51:30;98519.44;;;3.34;100.00
59337;BME280;45115;52.002;4.686;2023-01-16T06:53:58;98517.03;;;3.37;100.00
59337;BME280;45115;52.002;4.686;2023-01-16T06:56:28;98509.44;;;3.36;100.00
59337;BME280;45115;52.002;4.686;2023-01-16T06:58:55;98499.97;;;3.40;100.00
59337;BME280;45115;52.002;4.686;2023-01-16T07:01:22;98489.53;;;3.35;100.00
59337;BME280;45115;52.002;4.686;2023-01-16T07:03:49;98472.53;;;3.32;100.00
59337;BME280;45115;52.002;4.686;2023-01-16T07:06:29;98473.75;;;3.40;100.00
59337;BME280;45115;52.002;4.686;2023-01-16T07:08:57;98465.09;;;3.39;100.00
59337;BME280;45115;52.002;4.686;2023-01-16T07:11:27;98443.66;;;3.37;100.00
59337;BME280;45115;52.002;4.686;2023-01-16T07:14:08;98444.13;;;3.39;100.00
59337;BME280;45115;52.002;4.686;2023-01-16T07:16:52;98430.53;;;3.37;100.00
59337;BME280;45115;52.002;4.686;2023-01-16T07:19:36;98404.06;;;3.39;100.00
59337;BME280;45115;52.002;4.686;2023-01-16T07:22:21;98394.34;;;3.39;100.00
59337;BME280;45115;52.002;4.686;2023-01-16T07:25:10;98396.97;;;3.39;100.00
59337;BME280;45115;52.002;4.686;2023-01-16T07:27:39;98380.97;;;3.41;100.00
59337;BME280;45115;52.002;4.686;2023-01-16T07:30:08;98373.09;;;3.41;100.00
59337;BME280;45115;52.002;4.686;2023-01-16T07:32:35;98364.22;;;3.37;100.00
59337;BME280;45115;52.002;4.686;2023-01-16T07:35:03;98358.72;;;3.38;100.00
59337;BME280;45115;52.002;4.686;2023-01-16T07:37:29;98354.53;;;3.37;100.00
59337;BME280;45115;52.002;4.686;2023-01-16T07:39:56;98349.56;;;3.36;100.00
59337;BME280;45115;52.002;4.686;2023-01-16T07:42:24;98341.72;;;3.36;100.00
59337;BME280;45115;52.002;4.686;2023-01-16T07:44:51;98332.56;;;3.33;100.00
59337;BME280;45115;52.002;4.686;2023-01-16T07:47:17;98337.81;;;3.33;100.00
59337;BME280;45115;52.002;4.686;2023-01-16T07:49:44;98331.50;;;3.34;100.00
59337;BME280;45115;52.002;4.686;2023-01-16T07:52:10;98319.47;;;3.33;100.00
59337;BME280;45115;52.002;4.686;2023-01-16T07:54:37;98310.31;;;3.30;100.00
59337;BME280;45115;52.002;4.686;2023-01-16T07:57:05;98301.13;;;3.33;100.00
59337;BME280;45115;52.002;4.686;2023-01-16T07:59:33;98290.63;;;3.33;100.00
59337;BME280;45115;52.002;4.686;2023-01-16T08:02:00;98286.47;;;3.32;100.00
59337;BME280;45115;52.002;4.686;2023-01-16T08:04:28;98277.53;;;3.33;100.00
59337;BME280;45115;52.002;4.686;2023-01-16T08:06:54;98280.44;;;3.31;100.00
59337;BME280;45115;52.002;4.686;2023-01-16T08:09:21;98264.22;;;3.29;100.00
59337;BME280;45115;52.002;4.686;2023-01-16T08:11:48;98261.81;;;3.33;100.00
59337;BME280;45115;52.002;4.686;2023-01-16T08:14:15;98261.25;;;3.36;100.00
59337;BME280;45115;52.002;4.686;2023-01-16T08:16:43;98259.91;;;3.39;100.00
59337;BME280;45115;52.002;4.686;2023-01-16T08:19:09;98254.94;;;3.37;100.00
59337;BME280;45115;52.002;4.686;2023-01-16T08:21:36;98241.28;;;3.40;100.00
59337;BME280;45115;52.002;4.686;2023-01-16T08:24:03;98240.97;;;3.42;100.00
59337;BME280;45115;52.002;4.686;2023-01-16T08:26:30;98226.84;;;3.43;100.00
59337;BME280;45115;52.002;4.686;2023-01-16T08:28:57;98220.53;;;3.44;100.00
59337;BME280;45115;52.002;4.686;2023-01-16T08:31:25;98211.03;;;3.48;100.00
59337;BME280;45115;52.002;4.686;2023-01-16T08:33:53;98200.38;;;3.39;100.00
59337;BME280;45115;52.002;4.686;2023-01-16T08:36:19;98197.69;;;3.44;100.00
59337;BME280;45115;52.002;4.686;2023-01-16T08:38:47;98217.03;;;3.49;100.00
59337;BME280;45115;52.002;4.686;2023-01-16T08:41:14;98207.34;;;3.49;100.00
59337;BME280;45115;52.002;4.686;2023-01-16T08:43:58;98186.66;;;3.48;100.00
59337;BME280;45115;52.002;4.686;2023-01-16T08:46:43;98193.16;;;3.50;100.00
59337;BME280;45115;52.002;4.686;2023-01-16T08:49:30;98189.00;;;3.49;100.00
59337;BME280;45115;52.002;4.686;2023-01-16T08:52:15;98194.44;;;3.53;100.00
59337;BME280;45115;52.002;4.686;2023-01-16T08:54:41;98181.59;;;3.51;100.00
59337;BME280;45115;52.002;4.686;2023-01-16T08:57:08;98174.72;;;3.55;100.00
59337;BME280;45115;52.002;4.686;2023-01-16T08:59:36;98168.22;;;3.53;100.00
59337;BME280;45115;52.002;4.686;2023-01-16T09:02:04;98156.38;;;3.55;100.00
59337;BME280;45115;52.002;4.686;2023-01-16T09:04:35;98156.88;;;3.57;100.00
59337;BME280;45115;52.002;4.686;2023-01-16T09:07:02;98162.63;;;3.59;100.00
59337;BME280;45115;52.002;4.686;2023-01-16T09:09:29;98146.88;;;3.59;100.00
59337;BME280;45115;52.002;4.686;2023-01-16T09:11:56;98151.53;;;3.63;100.00
59337;BME280;45115;52.002;4.686;2023-01-16T09:14:36;98146.28;;;3.63;100.00
59337;BME280;45115;52.002;4.686;2023-01-16T09:17:03;98139.22;;;3.63;100.00
59337;BME280;45115;52.002;4.686;2023-01-16T09:19:31;98145.81;;;3.61;100.00
59337;BME280;45115;52.002;4.686;2023-01-16T09:21:59;98137.38;;;3.64;100.00
59337;BME280;45115;52.002;4.686;2023-01-16T09:24:26;98135.53;;;3.64;100.00
59337;BME280;45115;52.002;4.686;2023-01-16T09:26:52;98120.78;;;3.68;100.00
59337;BME280;45115;52.002;4.686;2023-01-16T09:29:19;98115.34;;;3.65;100.00
59337;BME280;45115;52.002;4.686;2023-01-16T09:31:45;98120.50;;;3.70;100.00
59337;BME280;45115;52.002;4.686;2023-01-16T09:34:12;98113.19;;;3.67;100.00
59337;BME280;45115;52.002;4.686;2023-01-16T09:36:39;98100.78;;;3.72;100.00
59337;BME280;45115;52.002;4.686;2023-01-16T09:39:07;98117.97;;;3.79;100.00
59337;BME280;45115;52.002;4.686;2023-01-16T09:41:42;98104.59;;;3.80;100.00
59337;BME280;45115;52.002;4.686;2023-01-16T09:44:29;98106.31;;;3.85;100.00
59337;BME280;45115;52.002;4.686;2023-01-16T09:46:58;98102.06;;;3.89;100.00
59337;BME280;45115;52.002;4.686;2023-01-16T09:49:29;98100.97;;;3.90;100.00
59337;BME280;45115;52.002;4.686;2023-01-16T09:52:01;98101.97;;;3.94;100.00
59337;BME280;45115;52.002;4.686;2023-01-16T09:54:51;98093.59;;;3.92;100.00
59337;BME280;45115;52.002;4.686;2023-01-16T09:57:36;98088.16;;;3.89;100.00
59337;BME280;45115;52.002;4.686;2023-01-16T10:00:24;98085.25;;;3.90;100.00
59337;BME280;45115;52.002;4.686;2023-01-16T10:02:51;98088.75;;;3.85;100.00
59337;BME280;45115;52.002;4.686;2023-01-16T10:05:17;98074.84;;;3.85;100.00
59337;BME280;45115;52.002;4.686;2023-01-16T10:07:50;98064.94;;;3.82;100.00
59337;BME280;45115;52.002;4.686;2023-01-16T10:10:34;98073.97;;;3.90;100.00
59337;BME280;45115;52.002;4.686;2023-01-16T10:13:11;98070.59;;;3.89;100.00
59337;BME280;45115;52.002;4.686;2023-01-16T10:15:46;98068.06;;;3.84;100.00
59337;BME280;45115;52.002;4.686;2023-01-16T10:18:25;98058.63;;;3.83;100.00
59337;BME280;45115;52.002;4.686;2023-01-16T10:21:17;98065.63;;;3.88;100.00
59337;BME280;45115;52.002;4.686;2023-01-16T10:23:52;98058.03;;;3.86;100.00
59337;BME280;45115;52.002;4.686;2023-01-16T10:26:27;98043.19;;;3.81;100.00
59337;BME280;45115;52.002;4.686;2023-01-16T10:29:00;98051.25;;;3.85;100.00
59337;BME280;45115;52.002;4.686;2023-01-16T10:31:32;98035.88;;;3.78;100.00
59337;BME280;45115;52.002;4.686;2023-01-16T10:34:02;98037.94;;;3.81;100.00
59337;BME280;45115;52.002;4.686;2023-01-16T10:36:34;98039.00;;;3.94;100.00
59337;BME280;45115;52.002;4.686;2023-01-16T10:39:03;98030.84;;;3.96;100.00
59337;BME280;45115;52.002;4.686;2023-01-16T10:41:33;98023.63;;;4.02;100.00
59337;BME280;45115;52.002;4.686;2023-01-16T10:44:26;98020.72;;;4.03;100.00
59337;BME280;45115;52.002;4.686;2023-01-16T10:47:12;98013.16;;;4.02;100.00
59337;BME280;45115;52.002;4.686;2023-01-16T10:49:56;98005.56;;;4.00;100.00
59337;BME280;45115;52.002;4.686;2023-01-16T10:52:23;97998.47;;;4.01;100.00
59337;BME280;45115;52.002;4.686;2023-01-16T10:54:51;98003.91;;;4.04;100.00
59337;BME280;45115;52.002;4.686;2023-01-16T10:57:20;98001.78;;;4.06;100.00
59337;BME280;45115;52.002;4.686;2023-01-16T10:59:49;98009.25;;;4.13;100.00
59337;BME280;45115;52.002;4.686;2023-01-16T11:02:27;97992.91;;;4.16;100.00
59337;BME280;45115;52.002;4.686;2023-01-16T11:04:54;97997.59;;;4.19;100.00
59337;BME280;45115;52.002;4.686;2023-01-16T11:07:22;97986.00;;;4.20;100.00
59337;BME280;45115;52.002;4.686;2023-01-16T11:09:50;97980.84;;;4.29;100.00
59337;BME280;45115;52.002;4.686;2023-01-16T11:12:23;97983.13;;;4.45;100.00
59337;BME280;45115;52.002;4.686;2023-01-16T11:15:15;97972.56;;;4.59;100.00
59337;BME280;45115;52.002;4.686;2023-01-16T11:18:00;97961.03;;;4.69;100.00
59337;BME280;45115;52.002;4.686;2023-01-16T11:20:45;97960.38;;;4.86;100.00
59337;BME280;45115;52.002;4.686;2023-01-16T11:23:18;97959.34;;;4.96;100.00
59337;BME280;45115;52.002;4.686;2023-01-16T11:25:50;97947.47;;;4.98;100.00
59337;BME280;45115;52.002;4.686;2023-01-16T11:28:21;97943.63;;;5.04;100.00
59337;BME280;45115;52.002;4.686;2023-01-16T11:30:52;97944.59;;;5.17;100.00
59337;BME280;45115;52.002;4.686;2023-01-16T11:33:22;97936.75;;;5.26;100.00
59337;BME280;45115;52.002;4.686;2023-01-16T11:35:53;97941.13;;;5.40;100.00
59337;BME280;45115;52.002;4.686;2023-01-16T11:38:21;97931.53;;;5.44;100.00
59337;BME280;45115;52.002;4.686;2023-01-16T11:40:50;97921.53;;;5.55;100.00
59337;BME280;45115;52.002;4.686;2023-01-16T11:43:23;97922.47;;;5.68;100.00
59337;BME280;45115;52.002;4.686;2023-01-16T11:46:21;97920.00;;;5.63;100.00
59337;BME280;45115;52.002;4.686;2023-01-16T11:48:53;97908.22;;;5.51;100.00
59337;BME280;45115;52.002;4.686;2023-01-16T11:51:24;97903.69;;;5.43;100.00
59337;BME280;45115;52.002;4.686;2023-01-16T11:53:54;97898.00;;;5.50;100.00
59337;BME280;45115;52.002;4.686;2023-01-16T11:56:34;97893.53;;;5.59;100.00
59337;BME280;45115;52.002;4.686;2023-01-16T11:59:26;97895.38;;;5.58;100.00
59337;BME280;45115;52.002;4.686;2023-01-16T12:02:02;97890.13;;;5.58;100.00
59337;BME280;45115;52.002;4.686;2023-01-16T12:04:48;97883.47;;;5.70;100.00
59337;BME280;45115;52.002;4.686;2023-01-16T12:07:38;97874.19;;;5.72;100.00
59337;BME280;45115;52.002;4.686;2023-01-16T12:10:17;97877.16;;;5.80;100.00
59337;BME280;45115;52.002;4.686;2023-01-16T12:12:47;97877.31;;;5.83;100.00
59337;BME280;45115;52.002;4.686;2023-01-16T12:15:37;97867.69;;;5.79;100.00
59337;BME280;45115;52.002;4.686;2023-01-16T12:18:16;97874.34;;;5.58;100.00
59337;BME280;45115;52.002;4.686;2023-01-16T12:20:50;97873.41;;;5.54;100.00
59337;BME280;45115;52.002;4.686;2023-01-16T12:23:31;97871.56;;;5.46;100.00
59337;BME280;45115;52.002;4.686;2023-01-16T12:26:14;97854.84;;;5.42;100.00
59337;BME280;45115;52.002;4.686;2023-01-16T12:28:54;97856.22;;;5.30;100.00
59337;BME280;45115;52.002;4.686;2023-01-16T12:31:37;97856.66;;;5.32;100.00
59337;BME280;45115;52.002;4.686;2023-01-16T12:34:36;97854.97;;;5.28;100.00
59337;BME280;45115;52.002;4.686;2023-01-16T12:37:30;97858.84;;;5.30;100.00
59337;BME280;45115;52.002;4.686;2023-01-16T12:40:16;97853.44;;;5.36;100.00
59337;BME280;45115;52.002;4.686;2023-01-16T12:42:52;97850.97;;;5.39;100.00
59337;BME280;45115;52.002;4.686;2023-01-16T12:45:47;97844.16;;;5.38;100.00
59337;BME280;45115;52.002;4.686;2023-01-16T12:48:33;97845.22;;;5.28;100.00
59337;BME280;45115;52.002;4.686;2023-01-16T12:54:16;97840.25;;;5.18;100.00
59337;BME280;45115;52.002;4.686;2023-01-16T12:56:56;97826.34;;;5.17;100.00
59337;BME280;45115;52.002;4.686;2023-01-16T12:59:33;97832.53;;;5.22;100.00
59337;BME280;45115;52.002;4.686;2023-01-16T13:02:13;97823.72;;;5.17;100.00
59337;BME280;45115;52.002;4.686;2023-01-16T13:04:48;97822.78;;;5.22;100.00
59337;BME280;45115;52.002;4.686;2023-01-16T13:07:17;97815.06;;;5.26;100.00
59337;BME280;45115;52.002;4.686;2023-01-16T13:09:47;97814.44;;;5.29;100.00
59337;BME280;45115;52.002;4.686;2023-01-16T13:12:18;97812.91;;;5.28;100.00
59337;BME280;45115;52.002;4.686;2023-01-16T13:15:06;97821.56;;;5.28;100.00
59337;BME280;45115;52.002;4.686;2023-01-16T13:17:42;97814.44;;;5.29;100.00
59337;BME280;45115;52.002;4.686;2023-01-16T13:20:12;97812.59;;;5.29;100.00
59337;BME280;45115;52.002;4.686;2023-01-16T13:22:45;97807.50;;;5.33;100.00
59337;BME280;45115;52.002;4.686;2023-01-16T13:25:17;97799.63;;;5.24;100.00
59337;BME280;45115;52.002;4.686;2023-01-16T13:27:50;97805.31;;;5.17;100.00
59337;BME280;45115;52.002;4.686;2023-01-16T13:30:20;97800.06;;;5.17;100.00
59337;BME280;45115;52.002;4.686;2023-01-16T13:32:50;97800.50;;;5.19;100.00